sensor_id;sensor_type;location;lat;lon;timestamp;P1;durP1;ratioP1;P2;durP2;ratioP2
2522;SDS011;1272;53.332;9.860;2023-02-01T00:00:19;15.07;;;3.53;;
2522;SDS011;1272;53.332;9.860;2023-02-01T00:02:45;19.97;;;5.40;;
2522;SDS011;1272;53.332;9.860;2023-02-01T00:05:10;26.17;;;4.93;;
2522;SDS011;1272;53.332;9.860;2023-02-01T00:07:36;27.40;;;4.93;;
2522;SDS011;1272;53.332;9.860;2023-02-01T00:10:03;23.20;;;5.87;;
2522;SDS011;1272;53.332;9.860;2023-02-01T00:12:30;25.30;;;5.67;;
2522;SDS011;1272;53.332;9.860;2023-02-01T00:14:56;17.83;;;4.37;;
2522;SDS011;1272;53.332;9.860;2023-02-01T00:17:22;21.50;;;4.63;;
2522;SDS011;1272;53.332;9.860;2023-02-01T00:19:48;19.47;;;4.60;;
2522;SDS011;1272;53.332;9.860;2023-02-01T00:22:14;19.07;;;5.00;;
2522;SDS011;1272;53.332;9.860;2023-02-01T00:24:40;16.23;;;4.17;;
2522;SDS011;1272;53.332;9.860;2023-02-01T00:27:05;15.03;;;4.00;;
2522;SDS011;1272;53.332;9.860;2023-02-01T00:29:31;25.13;;;4.43;;
2522;SDS011;1272;53.332;9.860;2023-02-01T00:31:56;21.20;;;3.80;;
2522;SDS011;1272;53.332;9.860;2023-02-01T00:34:22;22.83;;;5.30;;
2522;SDS011;1272;53.332;9.860;2023-02-01T00:36:48;18.23;;;3.97;;
2522;SDS011;1272;53.332;9.860;2023-02-01T00:39:14;15.83;;;3.80;;
2522;SDS011;1272;53.332;9.860;2023-02-01T00:41:40;22.33;;;5.50;;
2522;SDS011;1272;53.332;9.860;2023-02-01T00:44:06;15.70;;;5.27;;
2522;SDS011;1272;53.332;9.860;2023-02-01T00:46:32;11.40;;;3.83;;
2522;SDS011;1272;53.332;9.860;2023-02-01T00:48:58;21.63;;;4.73;;
2522;SDS011;1272;53.332;9.860;2023-02-01T00:51:24;23.37;;;5.20;;
2522;SDS011;1272;53.332;9.860;2023-02-01T00:53:52;22.00;;;5.60;;
2522;SDS011;1272;53.332;9.860;2023-02-01T00:56:18;12.97;;;4.07;;
2522;SDS011;1272;53.332;9.860;2023-02-01T00:58:44;25.57;;;4.73;;
2522;SDS011;1272;53.332;9.860;2023-02-01T01:01:14;25.83;;;4.70;;
2522;SDS011;1272;53.332;9.860;2023-02-01T01:03:42;16.67;;;4.53;;
2522;SDS011;1272;53.332;9.860;2023-02-01T01:06:13;25.80;;;4.60;;
2522;SDS011;1272;53.332;9.860;2023-02-01T01:08:40;18.57;;;5.73;;
2522;SDS011;1272;53.332;9.860;2023-02-01T01:11:11;16.47;;;4.63;;
2522;SDS011;1272;53.332;9.860;2023-02-01T01:13:49;23.90;;;4.80;;
2522;SDS011;1272;53.332;9.860;2023-02-01T01:16:22;18.10;;;4.03;;
2522;SDS011;1272;53.332;9.860;2023-02-01T01:18:49;22.57;;;5.53;;
2522;SDS011;1272;53.332;9.860;2023-02-01T01:21:16;26.10;;;5.77;;
2522;SDS011;1272;53.332;9.860;2023-02-01T01:23:42;18.30;;;5.10;;
2522;SDS011;1272;53.332;9.860;2023-02-01T01:26:22;29.23;;;5.80;;
2522;SDS011;1272;53.332;9.860;2023-02-01T01:28:49;20.07;;;4.63;;
2522;SDS011;1272;53.332;9.860;2023-02-01T01:31:15;20.23;;;4.27;;
2522;SDS011;1272;53.332;9.860;2023-02-01T01:33:42;22.70;;;4.40;;
2522;SDS011;1272;53.332;9.860;2023-02-01T01:36:11;23.17;;;4.70;;
2522;SDS011;1272;53.332;9.860;2023-02-01T01:38:40;18.33;;;5.10;;
2522;SDS011;1272;53.332;9.860;2023-02-01T01:41:07;22.30;;;5.03;;
2522;SDS011;1272;53.332;9.860;2023-02-01T01:46:22;24.80;;;5.37;;
2522;SDS011;1272;53.332;9.860;2023-02-01T01:48:51;28.27;;;5.57;;
2522;SDS011;1272;53.332;9.860;2023-02-01T01:51:25;18.37;;;5.43;;
2522;SDS011;1272;53.332;9.860;2023-02-01T01:54:01;28.77;;;5.60;;
2522;SDS011;1272;53.332;9.860;2023-02-01T01:56:31;28.93;;;7.27;;
2522;SDS011;1272;53.332;9.860;2023-02-01T01:58:59;20.83;;;5.57;;
2522;SDS011;1272;53.332;9.860;2023-02-01T02:01:25;20.07;;;4.43;;
2522;SDS011;1272;53.332;9.860;2023-02-01T02:03:52;20.13;;;4.70;;
2522;SDS011;1272;53.332;9.860;2023-02-01T02:08:57;31.40;;;4.97;;
2522;SDS011;1272;53.332;9.860;2023-02-01T02:11:23;23.93;;;4.80;;
2522;SDS011;1272;53.332;9.860;2023-02-01T02:13:50;16.10;;;4.57;;
2522;SDS011;1272;53.332;9.860;2023-02-01T02:36:08;22.90;;;5.37;;
2522;SDS011;1272;53.332;9.860;2023-02-01T02:38:49;20.80;;;5.60;;
2522;SDS011;1272;53.332;9.860;2023-02-01T02:47:36;29.23;;;5.83;;
2522;SDS011;1272;53.332;9.860;2023-02-01T02:53:35;33.07;;;6.40;;
2522;SDS011;1272;53.332;9.860;2023-02-01T02:56:27;19.60;;;5.47;;
2522;SDS011;1272;53.332;9.860;2023-02-01T02:59:15;27.87;;;5.27;;
2522;SDS011;1272;53.332;9.860;2023-02-01T03:02:03;17.83;;;5.40;;
2522;SDS011;1272;53.332;9.860;2023-02-01T03:04:51;30.87;;;5.93;;
2522;SDS011;1272;53.332;9.860;2023-02-01T03:10:10;20.03;;;4.80;;
2522;SDS011;1272;53.332;9.860;2023-02-01T03:12:47;14.40;;;3.50;;
2522;SDS011;1272;53.332;9.860;2023-02-01T03:15:20;23.90;;;4.40;;
2522;SDS011;1272;53.332;9.860;2023-02-01T03:18:19;27.30;;;6.50;;
2522;SDS011;1272;53.332;9.860;2023-02-01T03:20:54;21.27;;;5.00;;
2522;SDS011;1272;53.332;9.860;2023-02-01T03:23:23;18.40;;;5.40;;
2522;SDS011;1272;53.332;9.860;2023-02-01T03:25:55;19.27;;;4.73;;
2522;SDS011;1272;53.332;9.860;2023-02-01T03:28:24;16.47;;;5.07;;
2522;SDS011;1272;53.332;9.860;2023-02-01T03:30:52;18.00;;;4.77;;
2522;SDS011;1272;53.332;9.860;2023-02-01T03:33:20;8.73;;;2.53;;
2522;SDS011;1272;53.332;9.860;2023-02-01T03:38:35;5.10;;;2.10;;
2522;SDS011;1272;53.332;9.860;2023-02-01T03:41:27;4.53;;;1.53;;
2522;SDS011;1272;53.332;9.860;2023-02-01T03:44:12;4.10;;;1.47;;
2522;SDS011;1272;53.332;9.860;2023-02-01T03:47:26;4.97;;;1.87;;
2522;SDS011;1272;53.332;9.860;2023-02-01T03:52:28;3.23;;;1.87;;
2522;SDS011;1272;53.332;9.860;2023-02-01T03:54:57;4.90;;;2.03;;
2522;SDS011;1272;53.332;9.860;2023-02-01T03:57:29;3.53;;;1.73;;
2522;SDS011;1272;53.332;9.860;2023-02-01T04:00:06;7.83;;;1.73;;
2522;SDS011;1272;53.332;9.860;2023-02-01T04:02:51;2.23;;;1.57;;
2522;SDS011;1272;53.332;9.860;2023-02-01T04:05:22;4.97;;;2.10;;
2522;SDS011;1272;53.332;9.860;2023-02-01T04:07:48;4.17;;;1.83;;
2522;SDS011;1272;53.332;9.860;2023-02-01T04:10:14;2.30;;;1.50;;
2522;SDS011;1272;53.332;9.860;2023-02-01T04:12:40;4.20;;;2.60;;
2522;SDS011;1272;53.332;9.860;2023-02-01T04:15:06;4.97;;;2.57;;
2522;SDS011;1272;53.332;9.860;2023-02-01T04:17:32;4.57;;;1.83;;
2522;SDS011;1272;53.332;9.860;2023-02-01T04:19:58;14.43;;;3.10;;
2522;SDS011;1272;53.332;9.860;2023-02-01T04:22:24;5.60;;;2.30;;
2522;SDS011;1272;53.332;9.860;2023-02-01T04:24:49;9.93;;;2.87;;
2522;SDS011;1272;53.332;9.860;2023-02-01T04:27:15;5.00;;;1.97;;
2522;SDS011;1272;53.332;9.860;2023-02-01T04:29:41;7.67;;;2.23;;
2522;SDS011;1272;53.332;9.860;2023-02-01T04:32:07;5.10;;;1.97;;
2522;SDS011;1272;53.332;9.860;2023-02-01T04:34:32;5.47;;;2.80;;
2522;SDS011;1272;53.332;9.860;2023-02-01T04:36:58;2.43;;;1.33;;
2522;SDS011;1272;53.332;9.860;2023-02-01T04:39:24;5.80;;;1.87;;
2522;SDS011;1272;53.332;9.860;2023-02-01T04:41:49;5.13;;;1.20;;
2522;SDS011;1272;53.332;9.860;2023-02-01T04:44:16;2.20;;;0.93;;
2522;SDS011;1272;53.332;9.860;2023-02-01T04:46:45;4.03;;;1.40;;
2522;SDS011;1272;53.332;9.860;2023-02-01T04:49:12;5.33;;;1.73;;
2522;SDS011;1272;53.332;9.860;2023-02-01T04:51:41;2.30;;;1.17;;
2522;SDS011;1272;53.332;9.860;2023-02-01T04:54:07;3.30;;;1.47;;
2522;SDS011;1272;53.332;9.860;2023-02-01T04:56:39;4.30;;;1.30;;
2522;SDS011;1272;53.332;9.860;2023-02-01T04:59:05;3.27;;;1.53;;
2522;SDS011;1272;53.332;9.860;2023-02-01T05:01:31;1.83;;;1.40;;
2522;SDS011;1272;53.332;9.860;2023-02-01T05:03:56;3.07;;;1.87;;
2522;SDS011;1272;53.332;9.860;2023-02-01T05:06:22;7.47;;;2.27;;
2522;SDS011;1272;53.332;9.860;2023-02-01T05:08:48;9.90;;;2.47;;
2522;SDS011;1272;53.332;9.860;2023-02-01T05:11:14;8.73;;;2.10;;
2522;SDS011;1272;53.332;9.860;2023-02-01T05:13:59;9.07;;;2.40;;
2522;SDS011;1272;53.332;9.860;2023-02-01T05:16:25;8.73;;;2.17;;
2522;SDS011;1272;53.332;9.860;2023-02-01T05:18:52;6.00;;;2.30;;
2522;SDS011;1272;53.332;9.860;2023-02-01T05:21:18;8.83;;;2.30;;
2522;SDS011;1272;53.332;9.860;2023-02-01T05:23:44;5.70;;;2.50;;
2522;SDS011;1272;53.332;9.860;2023-02-01T05:26:28;9.67;;;2.43;;
2522;SDS011;1272;53.332;9.860;2023-02-01T05:28:54;4.50;;;2.27;;
2522;SDS011;1272;53.332;9.860;2023-02-01T05:31:20;3.00;;;1.00;;
2522;SDS011;1272;53.332;9.860;2023-02-01T05:33:46;4.20;;;1.50;;
2522;SDS011;1272;53.332;9.860;2023-02-01T05:36:12;1.73;;;1.13;;
2522;SDS011;1272;53.332;9.860;2023-02-01T05:38:38;3.20;;;1.40;;
2522;SDS011;1272;53.332;9.860;2023-02-01T05:44:02;2.67;;;1.17;;
2522;SDS011;1272;53.332;9.860;2023-02-01T05:46:28;4.13;;;1.13;;
2522;SDS011;1272;53.332;9.860;2023-02-01T05:48:54;1.63;;;1.53;;
2522;SDS011;1272;53.332;9.860;2023-02-01T05:51:20;1.73;;;1.20;;
2522;SDS011;1272;53.332;9.860;2023-02-01T05:53:45;3.30;;;1.40;;
2522;SDS011;1272;53.332;9.860;2023-02-01T05:56:11;3.20;;;1.37;;
2522;SDS011;1272;53.332;9.860;2023-02-01T05:58:37;4.00;;;1.67;;
2522;SDS011;1272;53.332;9.860;2023-02-01T06:01:02;1.80;;;1.50;;
2522;SDS011;1272;53.332;9.860;2023-02-01T06:03:28;3.73;;;1.43;;
2522;SDS011;1272;53.332;9.860;2023-02-01T06:05:55;3.27;;;1.93;;
2522;SDS011;1272;53.332;9.860;2023-02-01T06:08:20;3.60;;;1.47;;
2522;SDS011;1272;53.332;9.860;2023-02-01T06:10:46;2.27;;;1.40;;
2522;SDS011;1272;53.332;9.860;2023-02-01T06:13:11;4.50;;;2.20;;
2522;SDS011;1272;53.332;9.860;2023-02-01T06:15:37;3.63;;;1.60;;
2522;SDS011;1272;53.332;9.860;2023-02-01T06:18:03;5.03;;;1.70;;
2522;SDS011;1272;53.332;9.860;2023-02-01T06:20:29;1.80;;;1.43;;
2522;SDS011;1272;53.332;9.860;2023-02-01T06:22:55;1.67;;;1.30;;
2522;SDS011;1272;53.332;9.860;2023-02-01T06:25:21;7.00;;;1.77;;
2522;SDS011;1272;53.332;9.860;2023-02-01T06:27:47;7.17;;;1.93;;
2522;SDS011;1272;53.332;9.860;2023-02-01T06:30:13;4.60;;;2.07;;
2522;SDS011;1272;53.332;9.860;2023-02-01T06:32:39;9.07;;;2.33;;
2522;SDS011;1272;53.332;9.860;2023-02-01T06:35:06;6.60;;;2.53;;
2522;SDS011;1272;53.332;9.860;2023-02-01T06:37:33;4.40;;;2.50;;
2522;SDS011;1272;53.332;9.860;2023-02-01T06:40:01;3.67;;;2.00;;
2522;SDS011;1272;53.332;9.860;2023-02-01T06:42:26;4.93;;;1.50;;
2522;SDS011;1272;53.332;9.860;2023-02-01T06:44:52;6.10;;;1.83;;
2522;SDS011;1272;53.332;9.860;2023-02-01T06:47:18;5.20;;;1.90;;
2522;SDS011;1272;53.332;9.860;2023-02-01T06:49:43;6.43;;;1.80;;
2522;SDS011;1272;53.332;9.860;2023-02-01T06:52:09;3.03;;;1.57;;
2522;SDS011;1272;53.332;9.860;2023-02-01T06:54:35;4.10;;;1.73;;
2522;SDS011;1272;53.332;9.860;2023-02-01T06:57:02;7.10;;;1.73;;
2522;SDS011;1272;53.332;9.860;2023-02-01T06:59:28;6.43;;;2.23;;
2522;SDS011;1272;53.332;9.860;2023-02-01T07:01:54;7.00;;;2.43;;
2522;SDS011;1272;53.332;9.860;2023-02-01T07:04:19;15.90;;;3.77;;
2522;SDS011;1272;53.332;9.860;2023-02-01T07:06:45;5.40;;;2.53;;
2522;SDS011;1272;53.332;9.860;2023-02-01T07:09:11;11.20;;;2.63;;
2522;SDS011;1272;53.332;9.860;2023-02-01T07:11:38;6.67;;;2.90;;
2522;SDS011;1272;53.332;9.860;2023-02-01T07:14:08;14.80;;;3.43;;
2522;SDS011;1272;53.332;9.860;2023-02-01T07:16:34;12.07;;;3.33;;
2522;SDS011;1272;53.332;9.860;2023-02-01T07:19:00;12.43;;;2.87;;
2522;SDS011;1272;53.332;9.860;2023-02-01T07:21:26;13.30;;;5.40;;
2522;SDS011;1272;53.332;9.860;2023-02-01T07:23:53;2.67;;;2.30;;
2522;SDS011;1272;53.332;9.860;2023-02-01T07:26:20;3.57;;;2.20;;
2522;SDS011;1272;53.332;9.860;2023-02-01T07:28:46;18.93;;;4.80;;
2522;SDS011;1272;53.332;9.860;2023-02-01T07:31:13;13.23;;;3.67;;
2522;SDS011;1272;53.332;9.860;2023-02-01T07:33:49;14.50;;;4.00;;
2522;SDS011;1272;53.332;9.860;2023-02-01T07:36:19;20.37;;;4.20;;
2522;SDS011;1272;53.332;9.860;2023-02-01T07:38:45;29.27;;;4.30;;
2522;SDS011;1272;53.332;9.860;2023-02-01T07:41:14;21.43;;;5.23;;
2522;SDS011;1272;53.332;9.860;2023-02-01T07:43:40;22.53;;;4.77;;
2522;SDS011;1272;53.332;9.860;2023-02-01T07:46:06;19.03;;;3.70;;
2522;SDS011;1272;53.332;9.860;2023-02-01T07:48:33;21.40;;;4.90;;
2522;SDS011;1272;53.332;9.860;2023-02-01T07:50:59;14.87;;;2.90;;
2522;SDS011;1272;53.332;9.860;2023-02-01T07:53:30;8.33;;;3.43;;
2522;SDS011;1272;53.332;9.860;2023-02-01T07:55:57;11.50;;;3.37;;
2522;SDS011;1272;53.332;9.860;2023-02-01T07:58:23;11.40;;;3.07;;
2522;SDS011;1272;53.332;9.860;2023-02-01T08:00:50;9.83;;;3.17;;
2522;SDS011;1272;53.332;9.860;2023-02-01T08:03:35;21.10;;;4.53;;
2522;SDS011;1272;53.332;9.860;2023-02-01T08:06:00;20.77;;;4.17;;
2522;SDS011;1272;53.332;9.860;2023-02-01T08:08:26;23.17;;;3.30;;
2522;SDS011;1272;53.332;9.860;2023-02-01T08:10:56;14.83;;;4.00;;
2522;SDS011;1272;53.332;9.860;2023-02-01T08:13:26;21.13;;;4.53;;
2522;SDS011;1272;53.332;9.860;2023-02-01T08:15:51;19.83;;;4.93;;
2522;SDS011;1272;53.332;9.860;2023-02-01T08:18:17;22.03;;;4.77;;
2522;SDS011;1272;53.332;9.860;2023-02-01T08:20:44;25.77;;;4.70;;
2522;SDS011;1272;53.332;9.860;2023-02-01T08:23:11;13.37;;;4.40;;
2522;SDS011;1272;53.332;9.860;2023-02-01T08:25:37;19.37;;;4.77;;
2522;SDS011;1272;53.332;9.860;2023-02-01T08:28:04;15.10;;;4.07;;
2522;SDS011;1272;53.332;9.860;2023-02-01T08:30:30;28.53;;;5.50;;
2522;SDS011;1272;53.332;9.860;2023-02-01T08:32:56;26.63;;;5.40;;
2522;SDS011;1272;53.332;9.860;2023-02-01T08:35:22;19.27;;;5.63;;
2522;SDS011;1272;53.332;9.860;2023-02-01T08:37:49;32.30;;;5.50;;
2522;SDS011;1272;53.332;9.860;2023-02-01T08:40:15;23.97;;;5.50;;
2522;SDS011;1272;53.332;9.860;2023-02-01T08:42:41;25.53;;;5.90;;
2522;SDS011;1272;53.332;9.860;2023-02-01T08:45:19;21.00;;;4.00;;
2522;SDS011;1272;53.332;9.860;2023-02-01T08:47:53;16.40;;;4.20;;
2522;SDS011;1272;53.332;9.860;2023-02-01T08:50:19;20.53;;;4.30;;
2522;SDS011;1272;53.332;9.860;2023-02-01T08:52:46;14.63;;;4.00;;
2522;SDS011;1272;53.332;9.860;2023-02-01T08:55:12;18.80;;;5.40;;
2522;SDS011;1272;53.332;9.860;2023-02-01T08:57:39;20.00;;;3.83;;
2522;SDS011;1272;53.332;9.860;2023-02-01T09:00:05;32.27;;;5.80;;
2522;SDS011;1272;53.332;9.860;2023-02-01T09:02:34;16.30;;;3.60;;
2522;SDS011;1272;53.332;9.860;2023-02-01T09:05:00;16.63;;;4.40;;
2522;SDS011;1272;53.332;9.860;2023-02-01T09:07:26;25.77;;;5.43;;
2522;SDS011;1272;53.332;9.860;2023-02-01T09:09:52;15.73;;;4.83;;
2522;SDS011;1272;53.332;9.860;2023-02-01T09:12:19;14.07;;;3.77;;
2522;SDS011;1272;53.332;9.860;2023-02-01T09:14:45;17.33;;;4.27;;
2522;SDS011;1272;53.332;9.860;2023-02-01T09:17:11;23.37;;;4.40;;
2522;SDS011;1272;53.332;9.860;2023-02-01T09:19:38;14.03;;;4.03;;
2522;SDS011;1272;53.332;9.860;2023-02-01T09:22:04;18.53;;;5.27;;
2522;SDS011;1272;53.332;9.860;2023-02-01T09:24:30;24.13;;;5.73;;
2522;SDS011;1272;53.332;9.860;2023-02-01T09:26:55;21.17;;;4.27;;
2522;SDS011;1272;53.332;9.860;2023-02-01T09:29:21;21.53;;;4.50;;
2522;SDS011;1272;53.332;9.860;2023-02-01T09:31:47;18.57;;;4.40;;
2522;SDS011;1272;53.332;9.860;2023-02-01T09:34:12;30.57;;;5.43;;
2522;SDS011;1272;53.332;9.860;2023-02-01T09:36:38;26.73;;;4.57;;
2522;SDS011;1272;53.332;9.860;2023-02-01T09:39:04;14.77;;;4.70;;
2522;SDS011;1272;53.332;9.860;2023-02-01T09:41:32;23.40;;;4.07;;
2522;SDS011;1272;53.332;9.860;2023-02-01T09:47:13;17.50;;;4.57;;
2522;SDS011;1272;53.332;9.860;2023-02-01T09:50:05;12.27;;;5.30;;
2522;SDS011;1272;53.332;9.860;2023-02-01T09:52:40;18.97;;;4.67;;
2522;SDS011;1272;53.332;9.860;2023-02-01T09:55:13;15.47;;;4.60;;
2522;SDS011;1272;53.332;9.860;2023-02-01T10:00:54;17.50;;;4.37;;
2522;SDS011;1272;53.332;9.860;2023-02-01T10:03:23;16.70;;;4.07;;
2522;SDS011;1272;53.332;9.860;2023-02-01T10:24:58;15.53;;;5.20;;
2522;SDS011;1272;53.332;9.860;2023-02-01T10:27:59;19.80;;;3.60;;
2522;SDS011;1272;53.332;9.860;2023-02-01T10:33:34;15.27;;;4.40;;
2522;SDS011;1272;53.332;9.860;2023-02-01T10:36:16;15.83;;;4.10;;
2522;SDS011;1272;53.332;9.860;2023-02-01T10:38:48;21.70;;;5.20;;
2522;SDS011;1272;53.332;9.860;2023-02-01T10:41:15;21.43;;;4.90;;
2522;SDS011;1272;53.332;9.860;2023-02-01T10:43:43;10.47;;;4.07;;
2522;SDS011;1272;53.332;9.860;2023-02-01T10:46:10;10.50;;;3.30;;
2522;SDS011;1272;53.332;9.860;2023-02-01T10:48:37;11.00;;;3.90;;
2522;SDS011;1272;53.332;9.860;2023-02-01T10:54:05;17.40;;;4.03;;
2522;SDS011;1272;53.332;9.860;2023-02-01T10:56:45;16.10;;;3.90;;
2522;SDS011;1272;53.332;9.860;2023-02-01T10:59:19;17.90;;;4.17;;
2522;SDS011;1272;53.332;9.860;2023-02-01T11:01:48;12.63;;;3.67;;
2522;SDS011;1272;53.332;9.860;2023-02-01T11:04:16;17.37;;;4.60;;
2522;SDS011;1272;53.332;9.860;2023-02-01T11:06:50;19.27;;;4.33;;
2522;SDS011;1272;53.332;9.860;2023-02-01T11:09:32;10.23;;;4.10;;
2522;SDS011;1272;53.332;9.860;2023-02-01T11:12:04;20.37;;;4.10;;
2522;SDS011;1272;53.332;9.860;2023-02-01T11:14:39;14.00;;;3.53;;
2522;SDS011;1272;53.332;9.860;2023-02-01T11:19:46;16.37;;;4.00;;
2522;SDS011;1272;53.332;9.860;2023-02-01T11:22:13;10.90;;;5.17;;
2522;SDS011;1272;53.332;9.860;2023-02-01T11:24:39;24.20;;;5.40;;
2522;SDS011;1272;53.332;9.860;2023-02-01T11:27:14;13.90;;;3.80;;
2522;SDS011;1272;53.332;9.860;2023-02-01T11:29:45;14.37;;;4.17;;
2522;SDS011;1272;53.332;9.860;2023-02-01T11:32:13;17.30;;;4.53;;
2522;SDS011;1272;53.332;9.860;2023-02-01T11:34:52;13.67;;;4.20;;
2522;SDS011;1272;53.332;9.860;2023-02-01T11:37:20;12.77;;;4.93;;
2522;SDS011;1272;53.332;9.860;2023-02-01T11:42:24;10.40;;;4.13;;
2522;SDS011;1272;53.332;9.860;2023-02-01T11:44:51;20.07;;;4.90;;
2522;SDS011;1272;53.332;9.860;2023-02-01T11:47:46;21.10;;;5.10;;
2522;SDS011;1272;53.332;9.860;2023-02-01T11:50:17;15.70;;;4.67;;
2522;SDS011;1272;53.332;9.860;2023-02-01T12:06:28;7.53;;;2.80;;
2522;SDS011;1272;53.332;9.860;2023-02-01T12:14:36;1.80;;;1.37;;
2522;SDS011;1272;53.332;9.860;2023-02-01T12:25:11;3.70;;;1.30;;
2522;SDS011;1272;53.332;9.860;2023-02-01T12:38:53;2.30;;;1.40;;
2522;SDS011;1272;53.332;9.860;2023-02-01T12:44:16;4.97;;;1.17;;
2522;SDS011;1272;53.332;9.860;2023-02-01T12:49:18;1.20;;;1.00;;
2522;SDS011;1272;53.332;9.860;2023-02-01T12:51:46;1.53;;;1.43;;
2522;SDS011;1272;53.332;9.860;2023-02-01T12:56:58;1.20;;;1.20;;
2522;SDS011;1272;53.332;9.860;2023-02-01T13:05:43;0.93;;;0.90;;
2522;SDS011;1272;53.332;9.860;2023-02-01T13:08:22;1.23;;;1.20;;
2522;SDS011;1272;53.332;9.860;2023-02-01T13:11:05;0.80;;;0.80;;
2522;SDS011;1272;53.332;9.860;2023-02-01T13:14:03;1.40;;;1.00;;
2522;SDS011;1272;53.332;9.860;2023-02-01T13:16:47;0.90;;;0.90;;
2522;SDS011;1272;53.332;9.860;2023-02-01T13:19:29;1.17;;;1.07;;
2522;SDS011;1272;53.332;9.860;2023-02-01T13:22:24;1.63;;;0.70;;
2522;SDS011;1272;53.332;9.860;2023-02-01T13:28:15;6.40;;;4.80;;
2522;SDS011;1272;53.332;9.860;2023-02-01T13:30:50;2.50;;;2.40;;
2522;SDS011;1272;53.332;9.860;2023-02-01T13:36:10;1.90;;;1.80;;
2522;SDS011;1272;53.332;9.860;2023-02-01T13:44:12;4.70;;;4.40;;
2522;SDS011;1272;53.332;9.860;2023-02-01T13:46:45;1.60;;;1.43;;
2522;SDS011;1272;53.332;9.860;2023-02-01T13:49:31;1.13;;;1.03;;
2522;SDS011;1272;53.332;9.860;2023-02-01T13:52:06;5.73;;;3.60;;
2522;SDS011;1272;53.332;9.860;2023-02-01T13:54:46;3.50;;;3.20;;
2522;SDS011;1272;53.332;9.860;2023-02-01T14:00:06;3.00;;;2.80;;
2522;SDS011;1272;53.332;9.860;2023-02-01T14:05:10;1.43;;;1.37;;
2522;SDS011;1272;53.332;9.860;2023-02-01T14:07:40;4.70;;;2.10;;
2522;SDS011;1272;53.332;9.860;2023-02-01T14:13:39;4.00;;;1.17;;
2522;SDS011;1272;53.332;9.860;2023-02-01T14:26:26;1.73;;;1.47;;
2522;SDS011;1272;53.332;9.860;2023-02-01T14:44:47;6.40;;;1.90;;
2522;SDS011;1272;53.332;9.860;2023-02-01T14:52:34;4.33;;;1.40;;
2522;SDS011;1272;53.332;9.860;2023-02-01T14:55:09;2.83;;;1.10;;
2522;SDS011;1272;53.332;9.860;2023-02-01T14:57:57;1.20;;;1.10;;
2522;SDS011;1272;53.332;9.860;2023-02-01T15:00:26;6.30;;;1.70;;
2522;SDS011;1272;53.332;9.860;2023-02-01T15:03:13;1.80;;;1.37;;
2522;SDS011;1272;53.332;9.860;2023-02-01T15:05:59;4.43;;;1.40;;
2522;SDS011;1272;53.332;9.860;2023-02-01T15:08:30;3.80;;;1.20;;
2522;SDS011;1272;53.332;9.860;2023-02-01T15:11:01;10.37;;;2.40;;
2522;SDS011;1272;53.332;9.860;2023-02-01T15:13:31;9.33;;;3.80;;
2522;SDS011;1272;53.332;9.860;2023-02-01T15:16:04;6.90;;;1.57;;
2522;SDS011;1272;53.332;9.860;2023-02-01T15:18:30;5.40;;;1.90;;
2522;SDS011;1272;53.332;9.860;2023-02-01T15:21:00;7.47;;;2.03;;
2522;SDS011;1272;53.332;9.860;2023-02-01T15:23:27;7.27;;;2.00;;
2522;SDS011;1272;53.332;9.860;2023-02-01T15:25:54;8.60;;;2.30;;
2522;SDS011;1272;53.332;9.860;2023-02-01T15:28:20;6.93;;;2.00;;
2522;SDS011;1272;53.332;9.860;2023-02-01T15:30:56;6.50;;;2.30;;
2522;SDS011;1272;53.332;9.860;2023-02-01T15:33:30;5.57;;;2.33;;
2522;SDS011;1272;53.332;9.860;2023-02-01T15:38:36;5.80;;;3.80;;
2522;SDS011;1272;53.332;9.860;2023-02-01T15:49:22;8.63;;;2.50;;
2522;SDS011;1272;53.332;9.860;2023-02-01T15:51:51;13.07;;;2.80;;
2522;SDS011;1272;53.332;9.860;2023-02-01T15:54:19;17.73;;;3.37;;
2522;SDS011;1272;53.332;9.860;2023-02-01T15:56:52;13.40;;;2.30;;
2522;SDS011;1272;53.332;9.860;2023-02-01T15:59:21;21.77;;;3.27;;
2522;SDS011;1272;53.332;9.860;2023-02-01T16:01:49;7.77;;;2.50;;
2522;SDS011;1272;53.332;9.860;2023-02-01T16:04:20;16.80;;;3.37;;
2522;SDS011;1272;53.332;9.860;2023-02-01T16:06:54;9.83;;;2.70;;
2522;SDS011;1272;53.332;9.860;2023-02-01T16:09:32;9.27;;;2.70;;
2522;SDS011;1272;53.332;9.860;2023-02-01T16:13:01;14.00;;;3.73;;
2522;SDS011;1272;53.332;9.860;2023-02-01T16:15:08;22.63;;;3.47;;
2522;SDS011;1272;53.332;9.860;2023-02-01T16:17:34;18.87;;;4.10;;
2522;SDS011;1272;53.332;9.860;2023-02-01T16:20:00;12.27;;;3.93;;
2522;SDS011;1272;53.332;9.860;2023-02-01T16:22:25;20.00;;;4.27;;
2522;SDS011;1272;53.332;9.860;2023-02-01T16:24:51;18.33;;;4.03;;
2522;SDS011;1272;53.332;9.860;2023-02-01T16:27:17;20.87;;;4.63;;
2522;SDS011;1272;53.332;9.860;2023-02-01T16:29:42;20.10;;;5.37;;
2522;SDS011;1272;53.332;9.860;2023-02-01T16:32:16;16.37;;;3.87;;
2522;SDS011;1272;53.332;9.860;2023-02-01T16:34:44;12.43;;;4.07;;
2522;SDS011;1272;53.332;9.860;2023-02-01T16:37:13;22.53;;;4.80;;
2522;SDS011;1272;53.332;9.860;2023-02-01T16:39:46;20.77;;;5.20;;
2522;SDS011;1272;53.332;9.860;2023-02-01T16:42:12;20.23;;;5.20;;
2522;SDS011;1272;53.332;9.860;2023-02-01T16:44:41;12.73;;;5.23;;
2522;SDS011;1272;53.332;9.860;2023-02-01T16:47:17;19.50;;;5.67;;
2522;SDS011;1272;53.332;9.860;2023-02-01T16:49:47;24.17;;;4.80;;
2522;SDS011;1272;53.332;9.860;2023-02-01T16:52:14;18.87;;;5.23;;
2522;SDS011;1272;53.332;9.860;2023-02-01T16:54:46;20.03;;;4.40;;
2522;SDS011;1272;53.332;9.860;2023-02-01T16:57:13;19.40;;;5.00;;
2522;SDS011;1272;53.332;9.860;2023-02-01T16:59:41;20.83;;;7.33;;
2522;SDS011;1272;53.332;9.860;2023-02-01T17:02:14;28.47;;;5.50;;
2522;SDS011;1272;53.332;9.860;2023-02-01T17:04:41;21.80;;;4.37;;
2522;SDS011;1272;53.332;9.860;2023-02-01T17:07:14;20.57;;;4.30;;
2522;SDS011;1272;53.332;9.860;2023-02-01T17:09:41;20.93;;;5.20;;
2522;SDS011;1272;53.332;9.860;2023-02-01T17:12:09;22.73;;;5.60;;
2522;SDS011;1272;53.332;9.860;2023-02-01T17:14:46;14.33;;;5.23;;
2522;SDS011;1272;53.332;9.860;2023-02-01T17:17:12;22.90;;;4.80;;
2522;SDS011;1272;53.332;9.860;2023-02-01T17:19:41;17.80;;;5.10;;
2522;SDS011;1272;53.332;9.860;2023-02-01T17:22:07;21.77;;;4.90;;
2522;SDS011;1272;53.332;9.860;2023-02-01T17:24:33;21.40;;;4.70;;
2522;SDS011;1272;53.332;9.860;2023-02-01T17:26:59;24.00;;;6.80;;
2522;SDS011;1272;53.332;9.860;2023-02-01T17:29:25;13.73;;;4.20;;
2522;SDS011;1272;53.332;9.860;2023-02-01T17:31:51;20.60;;;4.67;;
2522;SDS011;1272;53.332;9.860;2023-02-01T17:34:18;14.20;;;4.13;;
2522;SDS011;1272;53.332;9.860;2023-02-01T17:36:48;10.60;;;3.33;;
2522;SDS011;1272;53.332;9.860;2023-02-01T17:39:14;25.97;;;4.47;;
2522;SDS011;1272;53.332;9.860;2023-02-01T17:42:01;21.27;;;5.10;;
2522;SDS011;1272;53.332;9.860;2023-02-01T17:44:27;9.97;;;4.53;;
2522;SDS011;1272;53.332;9.860;2023-02-01T17:46:53;16.67;;;3.63;;
2522;SDS011;1272;53.332;9.860;2023-02-01T17:49:21;29.57;;;4.20;;
2522;SDS011;1272;53.332;9.860;2023-02-01T17:51:47;17.37;;;5.27;;
2522;SDS011;1272;53.332;9.860;2023-02-01T17:54:14;15.60;;;3.93;;
2522;SDS011;1272;53.332;9.860;2023-02-01T17:56:41;15.67;;;3.93;;
2522;SDS011;1272;53.332;9.860;2023-02-01T17:59:08;17.40;;;4.17;;
2522;SDS011;1272;53.332;9.860;2023-02-01T18:01:34;16.07;;;3.80;;
2522;SDS011;1272;53.332;9.860;2023-02-01T18:03:59;20.50;;;4.80;;
2522;SDS011;1272;53.332;9.860;2023-02-01T18:06:25;13.57;;;4.00;;
2522;SDS011;1272;53.332;9.860;2023-02-01T18:08:51;27.63;;;4.90;;
2522;SDS011;1272;53.332;9.860;2023-02-01T18:11:20;20.23;;;3.70;;
2522;SDS011;1272;53.332;9.860;2023-02-01T18:13:48;14.07;;;4.40;;
2522;SDS011;1272;53.332;9.860;2023-02-01T18:16:23;15.93;;;4.60;;
2522;SDS011;1272;53.332;9.860;2023-02-01T18:18:51;20.40;;;5.07;;
2522;SDS011;1272;53.332;9.860;2023-02-01T18:21:17;18.03;;;4.50;;
2522;SDS011;1272;53.332;9.860;2023-02-01T18:23:45;14.70;;;3.93;;
2522;SDS011;1272;53.332;9.860;2023-02-01T18:26:12;25.77;;;5.20;;
2522;SDS011;1272;53.332;9.860;2023-02-01T18:28:39;14.27;;;3.30;;
2522;SDS011;1272;53.332;9.860;2023-02-01T18:31:06;17.47;;;3.70;;
2522;SDS011;1272;53.332;9.860;2023-02-01T18:33:41;29.53;;;4.43;;
2522;SDS011;1272;53.332;9.860;2023-02-01T18:36:08;9.37;;;3.40;;
2522;SDS011;1272;53.332;9.860;2023-02-01T18:38:40;24.13;;;3.90;;
2522;SDS011;1272;53.332;9.860;2023-02-01T18:41:16;16.43;;;4.13;;